sensor_id;sensor_type;location;lat;lon;timestamp;P1;durP1;ratioP1;P2;durP2;ratioP2
25391;SDS011;13329;48.402;11.718;2023-11-19T00:00:03;1.00;;;0.90;;
25391;SDS011;13329;48.402;11.718;2023-11-19T00:02:29;1.60;;;0.90;;
25391;SDS011;13329;48.402;11.718;2023-11-19T00:04:54;1.57;;;1.07;;
25391;SDS011;13329;48.402;11.718;2023-11-19T00:07:19;1.03;;;0.63;;
25391;SDS011;13329;48.402;11.718;2023-11-19T00:09:45;1.00;;;0.57;;
25391;SDS011;13329;48.402;11.718;2023-11-19T00:12:10;0.43;;;0.43;;
25391;SDS011;13329;48.402;11.718;2023-11-19T00:14:35;0.70;;;0.70;;
25391;SDS011;13329;48.402;11.718;2023-11-19T00:17:00;1.57;;;0.90;;
25391;SDS011;13329;48.402;11.718;2023-11-19T00:19:25;1.60;;;1.07;;
25391;SDS011;13329;48.402;11.718;2023-11-19T00:21:51;1.30;;;0.80;;
25391;SDS011;13329;48.402;11.718;2023-11-19T00:24:16;0.83;;;0.80;;
25391;SDS011;13329;48.402;11.718;2023-11-19T00:26:42;1.98;;;1.08;;
25391;SDS011;13329;48.402;11.718;2023-11-19T00:29:08;1.27;;;0.88;;
25391;SDS011;13329;48.402;11.718;2023-11-19T00:31:33;1.20;;;0.90;;
25391;SDS011;13329;48.402;11.718;2023-11-19T00:33:58;1.77;;;0.70;;
25391;SDS011;13329;48.402;11.718;2023-11-19T00:36:23;0.67;;;0.67;;
25391;SDS011;13329;48.402;11.718;2023-11-19T00:38:49;0.90;;;0.60;;
25391;SDS011;13329;48.402;11.718;2023-11-19T00:41:14;0.57;;;0.57;;
25391;SDS011;13329;48.402;11.718;2023-11-19T00:43:41;4.32;;;1.10;;
25391;SDS011;13329;48.402;11.718;2023-11-19T00:46:07;0.73;;;0.70;;
25391;SDS011;13329;48.402;11.718;2023-11-19T00:48:32;0.65;;;0.57;;
25391;SDS011;13329;48.402;11.718;2023-11-19T00:50:57;1.53;;;0.90;;
25391;SDS011;13329;48.402;11.718;2023-11-19T00:53:22;2.77;;;1.23;;
25391;SDS011;13329;48.402;11.718;2023-11-19T00:55:47;1.37;;;0.83;;
25391;SDS011;13329;48.402;11.718;2023-11-19T00:58:12;0.60;;;0.60;;
25391;SDS011;13329;48.402;11.718;2023-11-19T01:00:38;0.80;;;0.70;;
25391;SDS011;13329;48.402;11.718;2023-11-19T01:03:03;0.73;;;0.60;;
25391;SDS011;13329;48.402;11.718;2023-11-19T01:05:28;1.27;;;0.73;;
25391;SDS011;13329;48.402;11.718;2023-11-19T01:07:53;3.37;;;1.50;;
25391;SDS011;13329;48.402;11.718;2023-11-19T01:10:19;2.17;;;1.48;;
25391;SDS011;13329;48.402;11.718;2023-11-19T01:12:44;0.90;;;0.90;;
25391;SDS011;13329;48.402;11.718;2023-11-19T01:15:09;1.83;;;1.10;;
25391;SDS011;13329;48.402;11.718;2023-11-19T01:17:34;1.90;;;1.20;;
25391;SDS011;13329;48.402;11.718;2023-11-19T01:20:01;2.65;;;1.30;;
25391;SDS011;13329;48.402;11.718;2023-11-19T01:22:26;1.47;;;1.37;;
25391;SDS011;13329;48.402;11.718;2023-11-19T01:24:51;1.67;;;1.20;;
25391;SDS011;13329;48.402;11.718;2023-11-19T01:27:17;1.98;;;1.70;;
25391;SDS011;13329;48.402;11.718;2023-11-19T01:29:42;2.67;;;1.50;;
25391;SDS011;13329;48.402;11.718;2023-11-19T01:32:08;1.33;;;1.13;;
25391;SDS011;13329;48.402;11.718;2023-11-19T01:34:33;1.80;;;1.50;;
25391;SDS011;13329;48.402;11.718;2023-11-19T01:36:58;2.83;;;1.73;;
25391;SDS011;13329;48.402;11.718;2023-11-19T01:39:23;1.45;;;1.23;;
25391;SDS011;13329;48.402;11.718;2023-11-19T01:41:48;2.37;;;1.40;;
25391;SDS011;13329;48.402;11.718;2023-11-19T01:44:14;5.27;;;1.60;;
25391;SDS011;13329;48.402;11.718;2023-11-19T01:46:40;2.47;;;1.80;;
25391;SDS011;13329;48.402;11.718;2023-11-19T01:49:06;2.72;;;1.50;;
25391;SDS011;13329;48.402;11.718;2023-11-19T01:51:31;2.47;;;1.33;;
25391;SDS011;13329;48.402;11.718;2023-11-19T01:53:57;3.33;;;1.95;;
25391;SDS011;13329;48.402;11.718;2023-11-19T01:56:22;1.35;;;1.10;;
25391;SDS011;13329;48.402;11.718;2023-11-19T01:58:48;2.88;;;2.00;;
25391;SDS011;13329;48.402;11.718;2023-11-19T02:01:13;1.23;;;1.13;;
25391;SDS011;13329;48.402;11.718;2023-11-19T02:03:39;4.13;;;2.30;;
25391;SDS011;13329;48.402;11.718;2023-11-19T02:06:04;3.30;;;1.53;;
25391;SDS011;13329;48.402;11.718;2023-11-19T02:08:30;4.13;;;2.60;;
25391;SDS011;13329;48.402;11.718;2023-11-19T02:10:55;8.47;;;2.30;;
25391;SDS011;13329;48.402;11.718;2023-11-19T02:13:26;3.05;;;1.88;;
25391;SDS011;13329;48.402;11.718;2023-11-19T02:15:51;3.65;;;2.40;;
25391;SDS011;13329;48.402;11.718;2023-11-19T02:18:26;3.40;;;2.13;;
25391;SDS011;13329;48.402;11.718;2023-11-19T02:20:55;4.18;;;2.28;;
25391;SDS011;13329;48.402;11.718;2023-11-19T02:23:20;2.67;;;1.95;;
25391;SDS011;13329;48.402;11.718;2023-11-19T02:26:00;4.20;;;2.30;;
25391;SDS011;13329;48.402;11.718;2023-11-19T02:28:27;5.30;;;2.35;;
25391;SDS011;13329;48.402;11.718;2023-11-19T02:30:52;6.53;;;2.60;;
25391;SDS011;13329;48.402;11.718;2023-11-19T02:33:18;5.38;;;3.03;;
25391;SDS011;13329;48.402;11.718;2023-11-19T02:35:43;4.93;;;3.17;;
25391;SDS011;13329;48.402;11.718;2023-11-19T02:38:08;3.20;;;2.10;;
25391;SDS011;13329;48.402;11.718;2023-11-19T02:40:34;4.50;;;2.45;;
25391;SDS011;13329;48.402;11.718;2023-11-19T02:42:59;5.67;;;3.03;;
25391;SDS011;13329;48.402;11.718;2023-11-19T02:45:25;3.57;;;2.17;;
25391;SDS011;13329;48.402;11.718;2023-11-19T02:47:50;3.28;;;2.28;;
25391;SDS011;13329;48.402;11.718;2023-11-19T02:50:16;5.63;;;2.95;;
25391;SDS011;13329;48.402;11.718;2023-11-19T02:52:41;3.33;;;2.17;;
25391;SDS011;13329;48.402;11.718;2023-11-19T02:55:07;3.92;;;2.67;;
25391;SDS011;13329;48.402;11.718;2023-11-19T02:57:35;2.63;;;1.92;;
25391;SDS011;13329;48.402;11.718;2023-11-19T03:00:00;3.22;;;2.03;;
25391;SDS011;13329;48.402;11.718;2023-11-19T03:02:25;3.23;;;1.70;;
25391;SDS011;13329;48.402;11.718;2023-11-19T03:07:24;5.10;;;2.35;;
25391;SDS011;13329;48.402;11.718;2023-11-19T03:09:49;3.80;;;2.23;;
25391;SDS011;13329;48.402;11.718;2023-11-19T03:12:14;4.07;;;2.80;;
25391;SDS011;13329;48.402;11.718;2023-11-19T03:14:40;3.00;;;2.33;;
25391;SDS011;13329;48.402;11.718;2023-11-19T03:17:05;5.60;;;3.30;;
25391;SDS011;13329;48.402;11.718;2023-11-19T03:19:30;5.87;;;3.30;;
25391;SDS011;13329;48.402;11.718;2023-11-19T03:21:55;2.93;;;2.00;;
25391;SDS011;13329;48.402;11.718;2023-11-19T03:24:20;4.87;;;2.90;;
25391;SDS011;13329;48.402;11.718;2023-11-19T03:26:49;3.67;;;2.20;;
25391;SDS011;13329;48.402;11.718;2023-11-19T03:29:15;4.78;;;2.85;;
25391;SDS011;13329;48.402;11.718;2023-11-19T03:31:43;6.03;;;2.80;;
25391;SDS011;13329;48.402;11.718;2023-11-19T03:34:09;3.35;;;2.25;;
25391;SDS011;13329;48.402;11.718;2023-11-19T03:36:34;3.83;;;2.10;;
25391;SDS011;13329;48.402;11.718;2023-11-19T03:39:00;5.97;;;3.20;;
25391;SDS011;13329;48.402;11.718;2023-11-19T03:41:25;4.37;;;2.43;;
25391;SDS011;13329;48.402;11.718;2023-11-19T03:43:50;3.07;;;2.37;;
25391;SDS011;13329;48.402;11.718;2023-11-19T03:46:16;4.47;;;2.43;;
25391;SDS011;13329;48.402;11.718;2023-11-19T03:48:41;4.20;;;2.25;;
25391;SDS011;13329;48.402;11.718;2023-11-19T03:51:07;9.13;;;2.70;;
25391;SDS011;13329;48.402;11.718;2023-11-19T03:53:32;6.10;;;2.70;;
25391;SDS011;13329;48.402;11.718;2023-11-19T03:55:57;3.25;;;2.38;;
25391;SDS011;13329;48.402;11.718;2023-11-19T03:58:22;4.25;;;2.75;;
25391;SDS011;13329;48.402;11.718;2023-11-19T04:00:47;5.03;;;2.57;;
25391;SDS011;13329;48.402;11.718;2023-11-19T04:03:12;6.30;;;2.43;;
25391;SDS011;13329;48.402;11.718;2023-11-19T04:05:38;5.63;;;2.50;;
25391;SDS011;13329;48.402;11.718;2023-11-19T04:08:03;5.97;;;2.43;;
25391;SDS011;13329;48.402;11.718;2023-11-19T04:10:28;4.25;;;2.40;;
25391;SDS011;13329;48.402;11.718;2023-11-19T04:12:53;2.83;;;1.77;;
25391;SDS011;13329;48.402;11.718;2023-11-19T04:15:18;2.53;;;1.43;;
25391;SDS011;13329;48.402;11.718;2023-11-19T04:17:44;1.77;;;1.13;;
25391;SDS011;13329;48.402;11.718;2023-11-19T04:20:09;2.13;;;1.27;;
25391;SDS011;13329;48.402;11.718;2023-11-19T04:22:38;1.10;;;0.88;;
25391;SDS011;13329;48.402;11.718;2023-11-19T04:25:03;1.63;;;0.68;;
25391;SDS011;13329;48.402;11.718;2023-11-19T04:27:29;3.05;;;0.77;;
25391;SDS011;13329;48.402;11.718;2023-11-19T04:29:55;0.50;;;0.50;;
25391;SDS011;13329;48.402;11.718;2023-11-19T04:32:20;0.60;;;0.52;;
25391;SDS011;13329;48.402;11.718;2023-11-19T04:34:46;0.98;;;0.60;;
25391;SDS011;13329;48.402;11.718;2023-11-19T04:37:11;0.30;;;0.30;;
25391;SDS011;13329;48.402;11.718;2023-11-19T04:39:36;0.63;;;0.50;;
25391;SDS011;13329;48.402;11.718;2023-11-19T04:42:02;1.70;;;0.80;;
25391;SDS011;13329;48.402;11.718;2023-11-19T04:44:27;0.65;;;0.50;;
25391;SDS011;13329;48.402;11.718;2023-11-19T04:46:54;0.35;;;0.35;;
25391;SDS011;13329;48.402;11.718;2023-11-19T04:49:19;0.40;;;0.40;;
25391;SDS011;13329;48.402;11.718;2023-11-19T04:51:45;0.50;;;0.50;;
25391;SDS011;13329;48.402;11.718;2023-11-19T04:54:13;0.68;;;0.60;;
25391;SDS011;13329;48.402;11.718;2023-11-19T04:56:39;0.60;;;0.60;;
25391;SDS011;13329;48.402;11.718;2023-11-19T04:59:05;0.75;;;0.50;;
25391;SDS011;13329;48.402;11.718;2023-11-19T05:01:30;1.65;;;0.68;;
25391;SDS011;13329;48.402;11.718;2023-11-19T05:03:56;0.52;;;0.43;;
25391;SDS011;13329;48.402;11.718;2023-11-19T05:06:22;0.47;;;0.47;;
25391;SDS011;13329;48.402;11.718;2023-11-19T05:08:47;1.03;;;0.60;;
25391;SDS011;13329;48.402;11.718;2023-11-19T05:11:12;1.23;;;0.63;;
25391;SDS011;13329;48.402;11.718;2023-11-19T05:13:42;1.05;;;0.30;;
25391;SDS011;13329;48.402;11.718;2023-11-19T05:16:10;0.98;;;0.77;;
25391;SDS011;13329;48.402;11.718;2023-11-19T05:18:35;1.47;;;0.77;;
25391;SDS011;13329;48.402;11.718;2023-11-19T05:21:00;0.50;;;0.50;;
25391;SDS011;13329;48.402;11.718;2023-11-19T05:23:25;0.50;;;0.50;;
25391;SDS011;13329;48.402;11.718;2023-11-19T05:25:50;3.00;;;0.70;;
25391;SDS011;13329;48.402;11.718;2023-11-19T05:28:15;0.37;;;0.37;;
25391;SDS011;13329;48.402;11.718;2023-11-19T05:30:41;0.40;;;0.40;;
25391;SDS011;13329;48.402;11.718;2023-11-19T05:33:06;0.63;;;0.50;;
25391;SDS011;13329;48.402;11.718;2023-11-19T05:35:33;1.45;;;0.38;;
25391;SDS011;13329;48.402;11.718;2023-11-19T05:37:59;0.88;;;0.70;;
25391;SDS011;13329;48.402;11.718;2023-11-19T05:40:24;0.40;;;0.40;;
25391;SDS011;13329;48.402;11.718;2023-11-19T05:42:49;0.77;;;0.30;;
25391;SDS011;13329;48.402;11.718;2023-11-19T05:45:14;0.23;;;0.10;;
25391;SDS011;13329;48.402;11.718;2023-11-19T05:47:40;0.50;;;0.50;;
25391;SDS011;13329;48.402;11.718;2023-11-19T05:50:06;2.22;;;0.52;;
25391;SDS011;13329;48.402;11.718;2023-11-19T05:52:31;0.35;;;0.30;;
25391;SDS011;13329;48.402;11.718;2023-11-19T05:54:59;0.68;;;0.60;;
25391;SDS011;13329;48.402;11.718;2023-11-19T05:57:27;0.30;;;0.30;;
25391;SDS011;13329;48.402;11.718;2023-11-19T05:59:54;0.43;;;0.30;;
25391;SDS011;13329;48.402;11.718;2023-11-19T06:02:19;2.20;;;0.70;;
25391;SDS011;13329;48.402;11.718;2023-11-19T06:04:44;0.53;;;0.47;;
25391;SDS011;13329;48.402;11.718;2023-11-19T06:07:12;1.45;;;1.02;;
25391;SDS011;13329;48.402;11.718;2023-11-19T06:09:37;1.10;;;0.77;;
25391;SDS011;13329;48.402;11.718;2023-11-19T06:12:03;0.30;;;0.30;;
25391;SDS011;13329;48.402;11.718;2023-11-19T06:14:29;0.90;;;0.73;;
25391;SDS011;13329;48.402;11.718;2023-11-19T06:16:54;0.67;;;0.40;;
25391;SDS011;13329;48.402;11.718;2023-11-19T06:19:19;0.65;;;0.50;;
25391;SDS011;13329;48.402;11.718;2023-11-19T06:21:44;4.03;;;0.90;;
25391;SDS011;13329;48.402;11.718;2023-11-19T06:24:09;0.60;;;0.57;;
25391;SDS011;13329;48.402;11.718;2023-11-19T06:26:34;0.70;;;0.57;;
25391;SDS011;13329;48.402;11.718;2023-11-19T06:29:00;0.67;;;0.57;;
25391;SDS011;13329;48.402;11.718;2023-11-19T06:31:25;0.30;;;0.30;;
25391;SDS011;13329;48.402;11.718;2023-11-19T06:33:50;0.50;;;0.37;;
25391;SDS011;13329;48.402;11.718;2023-11-19T06:36:15;1.73;;;0.97;;
25391;SDS011;13329;48.402;11.718;2023-11-19T06:38:43;1.27;;;0.45;;
25391;SDS011;13329;48.402;11.718;2023-11-19T06:41:09;0.53;;;0.53;;
25391;SDS011;13329;48.402;11.718;2023-11-19T06:43:37;1.50;;;0.95;;
25391;SDS011;13329;48.402;11.718;2023-11-19T06:46:02;0.33;;;0.33;;
25391;SDS011;13329;48.402;11.718;2023-11-19T06:48:27;0.75;;;0.68;;
25391;SDS011;13329;48.402;11.718;2023-11-19T06:50:52;0.82;;;0.30;;
25391;SDS011;13329;48.402;11.718;2023-11-19T06:53:17;1.50;;;0.80;;
25391;SDS011;13329;48.402;11.718;2023-11-19T06:55:43;0.47;;;0.47;;
25391;SDS011;13329;48.402;11.718;2023-11-19T06:58:08;0.80;;;0.33;;
25391;SDS011;13329;48.402;11.718;2023-11-19T07:00:33;0.57;;;0.57;;
25391;SDS011;13329;48.402;11.718;2023-11-19T07:03:00;0.95;;;0.32;;
25391;SDS011;13329;48.402;11.718;2023-11-19T07:05:26;3.90;;;0.87;;
25391;SDS011;13329;48.402;11.718;2023-11-19T07:07:51;0.53;;;0.33;;
25391;SDS011;13329;48.402;11.718;2023-11-19T07:10:16;1.63;;;0.85;;
25391;SDS011;13329;48.402;11.718;2023-11-19T07:12:41;0.70;;;0.33;;
25391;SDS011;13329;48.402;11.718;2023-11-19T07:15:07;1.58;;;0.60;;
25391;SDS011;13329;48.402;11.718;2023-11-19T07:17:33;0.60;;;0.60;;
25391;SDS011;13329;48.402;11.718;2023-11-19T07:20:00;1.05;;;0.85;;
25391;SDS011;13329;48.402;11.718;2023-11-19T07:22:25;0.60;;;0.50;;
25391;SDS011;13329;48.402;11.718;2023-11-19T07:24:50;0.43;;;0.43;;
25391;SDS011;13329;48.402;11.718;2023-11-19T07:27:16;0.50;;;0.43;;
25391;SDS011;13329;48.402;11.718;2023-11-19T07:29:43;0.20;;;0.20;;
25391;SDS011;13329;48.402;11.718;2023-11-19T07:32:08;0.30;;;0.30;;
25391;SDS011;13329;48.402;11.718;2023-11-19T07:34:33;0.50;;;0.40;;
25391;SDS011;13329;48.402;11.718;2023-11-19T07:36:59;6.55;;;0.65;;
25391;SDS011;13329;48.402;11.718;2023-11-19T07:39:27;1.67;;;0.80;;
25391;SDS011;13329;48.402;11.718;2023-11-19T07:41:52;0.38;;;0.30;;
25391;SDS011;13329;48.402;11.718;2023-11-19T07:44:17;0.30;;;0.20;;
25391;SDS011;13329;48.402;11.718;2023-11-19T07:46:42;0.75;;;0.63;;
25391;SDS011;13329;48.402;11.718;2023-11-19T07:49:09;3.20;;;0.52;;
25391;SDS011;13329;48.402;11.718;2023-11-19T07:51:35;1.75;;;0.50;;
25391;SDS011;13329;48.402;11.718;2023-11-19T07:54:01;0.35;;;0.35;;
25391;SDS011;13329;48.402;11.718;2023-11-19T07:56:26;0.50;;;0.13;;
25391;SDS011;13329;48.402;11.718;2023-11-19T07:58:51;0.90;;;0.50;;
25391;SDS011;13329;48.402;11.718;2023-11-19T08:01:16;0.32;;;0.25;;
25391;SDS011;13329;48.402;11.718;2023-11-19T08:03:42;0.87;;;0.60;;
25391;SDS011;13329;48.402;11.718;2023-11-19T08:06:07;0.67;;;0.43;;
25391;SDS011;13329;48.402;11.718;2023-11-19T08:08:32;0.30;;;0.17;;
25391;SDS011;13329;48.402;11.718;2023-11-19T08:10:58;0.52;;;0.22;;
25391;SDS011;13329;48.402;11.718;2023-11-19T08:13:24;1.33;;;0.20;;
25391;SDS011;13329;48.402;11.718;2023-11-19T08:15:50;0.32;;;0.25;;
25391;SDS011;13329;48.402;11.718;2023-11-19T08:18:15;0.97;;;0.53;;
25391;SDS011;13329;48.402;11.718;2023-11-19T08:20:40;0.73;;;0.30;;
25391;SDS011;13329;48.402;11.718;2023-11-19T08:23:06;0.30;;;0.30;;
25391;SDS011;13329;48.402;11.718;2023-11-19T08:25:31;0.20;;;0.20;;
25391;SDS011;13329;48.402;11.718;2023-11-19T08:27:58;0.30;;;0.30;;
25391;SDS011;13329;48.402;11.718;2023-11-19T08:30:23;5.10;;;0.83;;
25391;SDS011;13329;48.402;11.718;2023-11-19T08:32:49;1.92;;;0.50;;
25391;SDS011;13329;48.402;11.718;2023-11-19T08:35:14;0.20;;;0.20;;
25391;SDS011;13329;48.402;11.718;2023-11-19T08:37:40;0.73;;;0.43;;
25391;SDS011;13329;48.402;11.718;2023-11-19T08:40:07;1.10;;;0.35;;
25391;SDS011;13329;48.402;11.718;2023-11-19T08:42:32;0.25;;;0.25;;
25391;SDS011;13329;48.402;11.718;2023-11-19T08:44:57;0.20;;;0.20;;
25391;SDS011;13329;48.402;11.718;2023-11-19T08:47:22;0.40;;;0.23;;
25391;SDS011;13329;48.402;11.718;2023-11-19T08:49:48;0.27;;;0.27;;
25391;SDS011;13329;48.402;11.718;2023-11-19T08:52:15;0.28;;;0.25;;
25391;SDS011;13329;48.402;11.718;2023-11-19T08:54:42;0.30;;;0.20;;
25391;SDS011;13329;48.402;11.718;2023-11-19T08:57:07;0.25;;;0.17;;
25391;SDS011;13329;48.402;11.718;2023-11-19T08:59:33;0.17;;;0.17;;
25391;SDS011;13329;48.402;11.718;2023-11-19T09:01:59;0.25;;;0.22;;
25391;SDS011;13329;48.402;11.718;2023-11-19T09:04:24;0.53;;;0.10;;
25391;SDS011;13329;48.402;11.718;2023-11-19T09:06:49;2.27;;;0.40;;
25391;SDS011;13329;48.402;11.718;2023-11-19T09:09:14;0.50;;;0.10;;
25391;SDS011;13329;48.402;11.718;2023-11-19T09:11:40;0.20;;;0.20;;
25391;SDS011;13329;48.402;11.718;2023-11-19T09:14:05;0.20;;;0.20;;
25391;SDS011;13329;48.402;11.718;2023-11-19T09:16:30;0.10;;;0.10;;
25391;SDS011;13329;48.402;11.718;2023-11-19T09:18:55;0.80;;;0.53;;
25391;SDS011;13329;48.402;11.718;2023-11-19T09:21:20;0.10;;;0.10;;
25391;SDS011;13329;48.402;11.718;2023-11-19T09:23:45;0.38;;;0.25;;
25391;SDS011;13329;48.402;11.718;2023-11-19T09:26:13;0.52;;;0.43;;
25391;SDS011;13329;48.402;11.718;2023-11-19T09:28:38;0.57;;;0.40;;
25391;SDS011;13329;48.402;11.718;2023-11-19T09:31:12;0.63;;;0.30;;
25391;SDS011;13329;48.402;11.718;2023-11-19T09:33:37;0.10;;;0.10;;
25391;SDS011;13329;48.402;11.718;2023-11-19T09:36:03;0.73;;;0.20;;
25391;SDS011;13329;48.402;11.718;2023-11-19T09:38:28;1.58;;;0.30;;
25391;SDS011;13329;48.402;11.718;2023-11-19T09:40:53;0.50;;;0.43;;
25391;SDS011;13329;48.402;11.718;2023-11-19T09:43:18;0.93;;;0.30;;
25391;SDS011;13329;48.402;11.718;2023-11-19T09:45:47;3.90;;;0.10;;
25391;SDS011;13329;48.402;11.718;2023-11-19T09:48:13;1.20;;;0.20;;
25391;SDS011;13329;48.402;11.718;2023-11-19T09:50:39;0.20;;;0.20;;
25391;SDS011;13329;48.402;11.718;2023-11-19T09:53:05;0.35;;;0.10;;
25391;SDS011;13329;48.402;11.718;2023-11-19T09:55:31;0.30;;;0.30;;
25391;SDS011;13329;48.402;11.718;2023-11-19T09:57:56;0.20;;;0.20;;
25391;SDS011;13329;48.402;11.718;2023-11-19T10:00:24;0.30;;;0.20;;
25391;SDS011;13329;48.402;11.718;2023-11-19T10:02:49;0.40;;;0.20;;
25391;SDS011;13329;48.402;11.718;2023-11-19T10:05:15;0.90;;;0.28;;
25391;SDS011;13329;48.402;11.718;2023-11-19T10:07:40;0.30;;;0.20;;
25391;SDS011;13329;48.402;11.718;2023-11-19T10:10:05;0.47;;;0.30;;
25391;SDS011;13329;48.402;11.718;2023-11-19T10:12:31;0.10;;;0.05;;
25391;SDS011;13329;48.402;11.718;2023-11-19T10:14:56;0.20;;;0.20;;
25391;SDS011;13329;48.402;11.718;2023-11-19T10:17:27;0.25;;;0.25;;
25391;SDS011;13329;48.402;11.718;2023-11-19T10:19:54;0.17;;;0.17;;
25391;SDS011;13329;48.402;11.718;2023-11-19T10:22:19;0.53;;;0.20;;
25391;SDS011;13329;48.402;11.718;2023-11-19T10:24:44;1.40;;;0.25;;
25391;SDS011;13329;48.402;11.718;2023-11-19T10:27:09;0.53;;;0.30;;
25391;SDS011;13329;48.402;11.718;2023-11-19T10:29:37;0.00;;;0.00;;
25391;SDS011;13329;48.402;11.718;2023-11-19T10:32:03;0.00;;;0.00;;
25391;SDS011;13329;48.402;11.718;2023-11-19T10:34:28;0.40;;;0.22;;
25391;SDS011;13329;48.402;11.718;2023-11-19T10:36:54;0.17;;;0.15;;
25391;SDS011;13329;48.402;11.718;2023-11-19T10:39:20;0.43;;;0.30;;
25391;SDS011;13329;48.402;11.718;2023-11-19T10:41:46;0.20;;;0.20;;
25391;SDS011;13329;48.402;11.718;2023-11-19T10:44:11;3.23;;;0.73;;
25391;SDS011;13329;48.402;11.718;2023-11-19T10:46:37;0.15;;;0.15;;
25391;SDS011;13329;48.402;11.718;2023-11-19T10:49:03;0.15;;;0.15;;
25391;SDS011;13329;48.402;11.718;2023-11-19T10:51:29;0.47;;;0.40;;
25391;SDS011;13329;48.402;11.718;2023-11-19T10:53:54;0.43;;;0.30;;
25391;SDS011;13329;48.402;11.718;2023-11-19T10:56:21;0.22;;;0.22;;
25391;SDS011;13329;48.402;11.718;2023-11-19T10:58:49;1.55;;;0.28;;
25391;SDS011;13329;48.402;11.718;2023-11-19T11:01:16;0.63;;;0.30;;
25391;SDS011;13329;48.402;11.718;2023-11-19T11:03:43;0.00;;;0.00;;
25391;SDS011;13329;48.402;11.718;2023-11-19T11:06:10;0.65;;;0.30;;
25391;SDS011;13329;48.402;11.718;2023-11-19T11:08:38;0.25;;;0.20;;
25391;SDS011;13329;48.402;11.718;2023-11-19T11:11:04;0.65;;;0.20;;
25391;SDS011;13329;48.402;11.718;2023-11-19T11:13:29;0.85;;;0.30;;
25391;SDS011;13329;48.402;11.718;2023-11-19T11:15:56;0.20;;;0.10;;
25391;SDS011;13329;48.402;11.718;2023-11-19T11:18:23;0.85;;;0.22;;
25391;SDS011;13329;48.402;11.718;2023-11-19T11:20:49;3.35;;;0.28;;
25391;SDS011;13329;48.402;11.718;2023-11-19T11:31:15;1.42;;;0.32;;
25391;SDS011;13329;48.402;11.718;2023-11-19T11:33:56;0.65;;;0.20;;
25391;SDS011;13329;48.402;11.718;2023-11-19T11:36:25;0.20;;;0.20;;
25391;SDS011;13329;48.402;11.718;2023-11-19T11:38:50;0.10;;;0.10;;
25391;SDS011;13329;48.402;11.718;2023-11-19T11:43:50;0.32;;;0.10;;
25391;SDS011;13329;48.402;11.718;2023-11-19T11:49:03;7.57;;;1.35;;
25391;SDS011;13329;48.402;11.718;2023-11-19T11:54:09;0.20;;;0.10;;
25391;SDS011;13329;48.402;11.718;2023-11-19T11:56:38;0.17;;;0.08;;
25391;SDS011;13329;48.402;11.718;2023-11-19T11:59:07;0.10;;;0.10;;
25391;SDS011;13329;48.402;11.718;2023-11-19T12:01:32;0.10;;;0.10;;
25391;SDS011;13329;48.402;11.718;2023-11-19T12:03:57;0.10;;;0.10;;
25391;SDS011;13329;48.402;11.718;2023-11-19T12:06:23;0.38;;;0.30;;
25391;SDS011;13329;48.402;11.718;2023-11-19T12:08:48;0.00;;;0.00;;
25391;SDS011;13329;48.402;11.718;2023-11-19T12:11:13;0.17;;;0.10;;
25391;SDS011;13329;48.402;11.718;2023-11-19T12:13:52;0.37;;;0.13;;
25391;SDS011;13329;48.402;11.718;2023-11-19T12:16:18;0.05;;;0.05;;
25391;SDS011;13329;48.402;11.718;2023-11-19T12:18:43;0.03;;;0.03;;
25391;SDS011;13329;48.402;11.718;2023-11-19T12:21:09;1.27;;;0.30;;
25391;SDS011;13329;48.402;11.718;2023-11-19T12:23:35;0.10;;;0.10;;
25391;SDS011;13329;48.402;11.718;2023-11-19T12:26:01;0.10;;;0.10;;
25391;SDS011;13329;48.402;11.718;2023-11-19T12:28:28;0.20;;;0.20;;
25391;SDS011;13329;48.402;11.718;2023-11-19T12:30:54;0.20;;;0.20;;
25391;SDS011;13329;48.402;11.718;2023-11-19T12:33:32;0.25;;;0.17;;
25391;SDS011;13329;48.402;11.718;2023-11-19T12:35:57;0.13;;;0.10;;
25391;SDS011;13329;48.402;11.718;2023-11-19T12:38:23;0.40;;;0.20;;
25391;SDS011;13329;48.402;11.718;2023-11-19T12:41:02;0.47;;;0.10;;
25391;SDS011;13329;48.402;11.718;2023-11-19T12:43:27;0.10;;;0.10;;
25391;SDS011;13329;48.402;11.718;2023-11-19T12:45:53;0.15;;;0.10;;
25391;SDS011;13329;48.402;11.718;2023-11-19T12:48:18;0.60;;;0.10;;
25391;SDS011;13329;48.402;11.718;2023-11-19T12:50:57;0.10;;;0.10;;
25391;SDS011;13329;48.402;11.718;2023-11-19T12:53:22;0.30;;;0.30;;
25391;SDS011;13329;48.402;11.718;2023-11-19T12:55:48;0.10;;;0.10;;
25391;SDS011;13329;48.402;11.718;2023-11-19T12:58:33;0.20;;;0.15;;
25391;SDS011;13329;48.402;11.718;2023-11-19T13:03:29;0.32;;;0.20;;
25391;SDS011;13329;48.402;11.718;2023-11-19T13:06:00;0.30;;;0.22;;
25391;SDS011;13329;48.402;11.718;2023-11-19T13:08:26;0.13;;;0.10;;
25391;SDS011;13329;48.402;11.718;2023-11-19T13:10:51;0.20;;;0.20;;
25391;SDS011;13329;48.402;11.718;2023-11-19T13:13:17;0.00;;;0.00;;
25391;SDS011;13329;48.402;11.718;2023-11-19T13:15:42;0.23;;;0.07;;
25391;SDS011;13329;48.402;11.718;2023-11-19T13:18:09;0.00;;;0.00;;
25391;SDS011;13329;48.402;11.718;2023-11-19T13:20:35;0.10;;;0.10;;
25391;SDS011;13329;48.402;11.718;2023-11-19T13:23:01;0.45;;;0.30;;
25391;SDS011;13329;48.402;11.718;2023-11-19T13:25:26;0.28;;;0.10;;
25391;SDS011;13329;48.402;11.718;2023-11-19T13:27:52;0.10;;;0.00;;
25391;SDS011;13329;48.402;11.718;2023-11-19T13:30:17;0.00;;;0.00;;
25391;SDS011;13329;48.402;11.718;2023-11-19T13:32:43;0.15;;;0.00;;
25391;SDS011;13329;48.402;11.718;2023-11-19T13:35:10;1.35;;;0.30;;
25391;SDS011;13329;48.402;11.718;2023-11-19T13:37:36;0.10;;;0.10;;
25391;SDS011;13329;48.402;11.718;2023-11-19T13:40:01;0.13;;;0.00;;
25391;SDS011;13329;48.402;11.718;2023-11-19T13:42:26;0.20;;;0.10;;
25391;SDS011;13329;48.402;11.718;2023-11-19T13:44:52;0.47;;;0.20;;
25391;SDS011;13329;48.402;11.718;2023-11-19T13:47:17;0.20;;;0.10;;
25391;SDS011;13329;48.402;11.718;2023-11-19T13:49:44;0.30;;;0.20;;
25391;SDS011;13329;48.402;11.718;2023-11-19T13:52:09;0.00;;;0.00;;
25391;SDS011;13329;48.402;11.718;2023-11-19T13:54:34;0.20;;;0.10;;
25391;SDS011;13329;48.402;11.718;2023-11-19T13:56:59;0.10;;;0.10;;
25391;SDS011;13329;48.402;11.718;2023-11-19T13:59:25;0.98;;;0.32;;
25391;SDS011;13329;48.402;11.718;2023-11-19T14:01:51;0.28;;;0.28;;
25391;SDS011;13329;48.402;11.718;2023-11-19T14:04:16;0.43;;;0.13;;
25391;SDS011;13329;48.402;11.718;2023-11-19T14:06:43;0.07;;;0.07;;
25391;SDS011;13329;48.402;11.718;2023-11-19T14:09:09;1.00;;;0.10;;
25391;SDS011;13329;48.402;11.718;2023-11-19T14:11:34;1.35;;;0.20;;
25391;SDS011;13329;48.402;11.718;2023-11-19T14:14:00;0.40;;;0.20;;
25391;SDS011;13329;48.402;11.718;2023-11-19T14:16:28;0.97;;;0.20;;
25391;SDS011;13329;48.402;11.718;2023-11-19T14:18:53;0.43;;;0.15;;
25391;SDS011;13329;48.402;11.718;2023-11-19T14:21:19;0.00;;;0.00;;
25391;SDS011;13329;48.402;11.718;2023-11-19T14:23:44;0.13;;;0.13;;
25391;SDS011;13329;48.402;11.718;2023-11-19T14:26:10;0.40;;;0.20;;
25391;SDS011;13329;48.402;11.718;2023-11-19T14:28:35;0.23;;;0.17;;
25391;SDS011;13329;48.402;11.718;2023-11-19T14:31:00;0.50;;;0.32;;
25391;SDS011;13329;48.402;11.718;2023-11-19T14:33:25;0.17;;;0.17;;
25391;SDS011;13329;48.402;11.718;2023-11-19T14:35:50;0.43;;;0.20;;
25391;SDS011;13329;48.402;11.718;2023-11-19T14:38:16;0.13;;;0.13;;
25391;SDS011;13329;48.402;11.718;2023-11-19T14:40:42;0.33;;;0.23;;
25391;SDS011;13329;48.402;11.718;2023-11-19T14:43:07;0.43;;;0.30;;
25391;SDS011;13329;48.402;11.718;2023-11-19T14:45:35;0.63;;;0.28;;